Time;durP1;ratioP1;P1;durP2;ratioP2;P2;SDS_P1;SDS_P2;PMS_P1;PMS_P2;Temp;Humidity;BMP_temperature;BMP_pressure;BME280_temperature;BME280_humidity;BME280_pressure;Samples;Min_cycle;Max_cycle;Signal;HPM_P1;HPM_P2
2022/05/02 00:00:47;;;;;;;;;25.75;25.00;;;;;;;;5028957;28;51130;-52
2022/05/02 00:03:13;;;;;;;;;29.25;23.75;;;;;;;;5032794;28;51588;-56
2022/05/02 00:05:38;;;;;;;;;23.25;23.25;;;;;;;;5029880;28;51115;-54
2022/05/02 00:08:04;;;;;;;;;27.75;26.25;;;;;;;;5026026;28;51127;-54
2022/05/02 00:10:30;;;;;;;;;23.25;22.75;;;;;;;;5026197;28;51193;-57
2022/05/02 00:12:56;;;;;;;;;21.75;21.75;;;;;;;;5008670;28;52781;-54
2022/05/02 00:15:21;;;;;;;;;25.75;25.75;;;;;;;;5035225;28;51205;-56
2022/05/02 00:17:59;;;;;;;;;22.75;22.50;;;;;;;;5031311;28;51163;-54
2022/05/02 00:20:28;;;;;;;;;25.25;21.75;;;;;;;;5038738;28;51166;-56
2022/05/02 00:22:54;;;;;;;;;27.25;22.75;;;;;;;;5023549;28;51107;-54
2022/05/02 00:25:19;;;;;;;;;23.50;23.25;;;;;;;;5031285;28;51133;-56
2022/05/02 00:27:45;;;;;;;;;24.00;23.00;;;;;;;;5024049;28;51107;-56
2022/05/02 00:30:11;;;;;;;;;23.00;21.50;;;;;;;;5031544;28;51235;-55
2022/05/02 00:32:36;;;;;;;;;25.00;21.00;;;;;;;;5019177;28;51390;-56
2022/05/02 00:35:02;;;;;;;;;22.00;21.25;;;;;;;;5029274;28;51049;-55
2022/05/02 00:37:29;;;;;;;;;24.50;23.00;;;;;;;;5022881;28;51185;-55
2022/05/02 00:39:54;;;;;;;;;25.50;24.50;;;;;;;;5025877;28;51188;-54
2022/05/02 00:42:20;;;;;;;;;20.00;19.50;;;;;;;;5028921;28;52005;-55
2022/05/02 00:44:45;;;;;;;;;17.25;17.00;;;;;;;;5025038;28;51417;-55
2022/05/02 00:47:11;;;;;;;;;26.25;24.25;;;;;;;;5021082;28;51162;-56
2022/05/02 00:49:37;;;;;;;;;22.00;21.00;;;;;;;;5016997;28;51159;-54
2022/05/02 00:52:02;;;;;;;;;25.25;24.75;;;;;;;;5026466;28;51609;-55
2022/05/02 00:54:28;;;;;;;;;20.00;18.75;;;;;;;;5006254;28;51203;-57
2022/05/02 00:56:53;;;;;;;;;29.25;28.25;;;;;;;;5033946;28;51176;-56
2022/05/02 00:59:19;;;;;;;;;24.75;23.25;;;;;;;;5031479;28;51160;-54
2022/05/02 01:01:45;;;;;;;;;22.25;21.00;;;;;;;;5029950;28;51798;-54
2022/05/02 01:04:10;;;;;;;;;23.00;23.00;;;;;;;;5029410;28;54870;-55
2022/05/02 01:09:19;;;;;;;;;21.75;20.50;;;;;;;;5002678;28;51139;-55
2022/05/02 01:11:44;;;;;;;;;24.50;22.75;;;;;;;;5002223;28;51225;-55
2022/05/02 01:14:09;;;;;;;;;22.50;22.50;;;;;;;;5006361;28;52195;-55
2022/05/02 01:16:35;;;;;;;;;20.25;19.75;;;;;;;;5007816;28;51183;-55
2022/05/02 01:19:00;;;;;;;;;21.75;19.75;;;;;;;;5006053;28;50865;-56
2022/05/02 01:21:26;;;;;;;;;22.75;21.75;;;;;;;;5006386;28;51602;-51
2022/05/02 01:23:52;;;;;;;;;21.50;20.25;;;;;;;;5005495;28;51117;-55
2022/05/02 01:26:18;;;;;;;;;20.75;19.75;;;;;;;;5007403;28;51158;-55
2022/05/02 01:28:44;;;;;;;;;23.00;22.75;;;;;;;;5006676;28;51380;-56
2022/05/02 01:31:09;;;;;;;;;21.00;20.25;;;;;;;;5004634;28;52378;-55
2022/05/02 01:33:35;;;;;;;;;20.00;19.00;;;;;;;;5003355;28;51079;-54
2022/05/02 01:36:00;;;;;;;;;21.25;20.25;;;;;;;;5004188;28;51778;-53
2022/05/02 01:38:26;;;;;;;;;25.25;22.50;;;;;;;;5003478;28;51181;-54
2022/05/02 01:40:51;;;;;;;;;20.75;19.25;;;;;;;;5011288;28;51938;-56
2022/05/02 01:43:16;;;;;;;;;26.75;25.00;;;;;;;;5001814;28;51163;-55
2022/05/02 01:45:42;;;;;;;;;22.50;20.50;;;;;;;;5006477;28;52796;-58
2022/05/02 01:48:07;;;;;;;;;22.25;21.25;;;;;;;;5005246;28;51544;-55
2022/05/02 01:50:32;;;;;;;;;22.50;21.00;;;;;;;;5005244;28;51892;-55
2022/05/02 01:52:57;;;;;;;;;22.75;22.50;;;;;;;;5003611;28;52932;-56
2022/05/02 01:55:22;;;;;;;;;25.00;22.00;;;;;;;;5019494;28;51263;-57
2022/05/02 01:57:48;;;;;;;;;20.00;19.50;;;;;;;;4991625;28;51398;-57
2022/05/02 02:00:13;;;;;;;;;23.00;22.50;;;;;;;;5000854;28;52799;-55
2022/05/02 02:02:39;;;;;;;;;26.00;23.25;;;;;;;;5004260;28;51105;-55
2022/05/02 02:07:48;;;;;;;;;22.50;21.75;;;;;;;;5000813;28;51698;-56
2022/05/02 02:10:14;;;;;;;;;23.75;23.25;;;;;;;;5008508;28;51166;-55
2022/05/02 02:12:39;;;;;;;;;26.75;24.25;;;;;;;;5001849;28;51173;-55
2022/05/02 02:15:05;;;;;;;;;23.50;23.50;;;;;;;;5010940;28;50920;-55
2022/05/02 02:17:30;;;;;;;;;24.75;22.25;;;;;;;;5001169;28;51241;-56
2022/05/02 02:19:55;;;;;;;;;25.75;25.25;;;;;;;;5007201;28;52143;-55
2022/05/02 02:22:21;;;;;;;;;23.75;23.25;;;;;;;;5000749;28;50928;-56
2022/05/02 02:24:47;;;;;;;;;31.00;27.00;;;;;;;;5008188;28;50987;-55
2022/05/02 02:27:12;;;;;;;;;28.25;27.25;;;;;;;;5004252;28;51495;-56
2022/05/02 02:29:38;;;;;;;;;34.00;28.00;;;;;;;;5008916;28;51068;-56
2022/05/02 02:32:03;;;;;;;;;26.50;25.00;;;;;;;;4991832;28;51221;-55
2022/05/02 02:34:28;;;;;;;;;29.50;27.00;;;;;;;;4989166;28;51261;-55
2022/05/02 02:36:54;;;;;;;;;25.75;22.25;;;;;;;;5007836;28;51189;-56
2022/05/02 02:39:19;;;;;;;;;31.25;30.75;;;;;;;;5003379;28;51067;-55
2022/05/02 02:41:44;;;;;;;;;30.00;27.50;;;;;;;;5007595;28;54326;-55
2022/05/02 02:44:10;;;;;;;;;33.00;30.25;;;;;;;;4986166;28;54449;-56
2022/05/02 02:46:35;;;;;;;;;27.50;25.75;;;;;;;;5003940;28;51333;-56
2022/05/02 02:49:00;;;;;;;;;29.00;26.00;;;;;;;;5004141;28;51496;-55
2022/05/02 02:51:25;;;;;;;;;30.75;30.00;;;;;;;;5006194;28;51701;-55
2022/05/02 02:53:51;;;;;;;;;27.50;25.00;;;;;;;;4989659;28;51796;-55
2022/05/02 02:56:17;;;;;;;;;29.50;27.75;;;;;;;;5001400;28;51247;-55
2022/05/02 02:58:42;;;;;;;;;27.00;26.25;;;;;;;;5003872;28;52042;-55
2022/05/02 03:01:07;;;;;;;;;31.25;28.25;;;;;;;;5003333;28;51165;-53
2022/05/02 03:03:33;;;;;;;;;30.00;26.25;;;;;;;;5008758;28;51182;-55
2022/05/02 03:06:04;;;;;;;;;29.25;27.75;;;;;;;;5022263;28;51348;-56
2022/05/02 03:08:30;;;;;;;;;27.75;24.50;;;;;;;;5008231;28;52813;-55
2022/05/02 03:10:56;;;;;;;;;29.50;27.50;;;;;;;;5026408;28;51016;-56
2022/05/02 03:13:21;;;;;;;;;26.00;26.00;;;;;;;;5029278;28;50985;-55
2022/05/02 03:15:47;;;;;;;;;27.75;26.75;;;;;;;;5043021;28;51062;-54
2022/05/02 03:18:12;;;;;;;;;28.75;27.75;;;;;;;;5021327;28;51115;-54
2022/05/02 03:20:37;;;;;;;;;37.00;30.25;;;;;;;;5020346;28;51145;-55
2022/05/02 03:23:03;;;;;;;;;28.25;26.75;;;;;;;;5020965;28;51218;-54
2022/05/02 03:25:28;;;;;;;;;29.50;28.00;;;;;;;;5034490;28;51163;-55
2022/05/02 03:27:53;;;;;;;;;27.75;26.25;;;;;;;;5018183;28;51388;-56
2022/05/02 03:30:18;;;;;;;;;33.00;27.25;;;;;;;;5008643;28;51186;-55
2022/05/02 03:32:43;;;;;;;;;26.75;25.75;;;;;;;;5020270;28;51376;-53
2022/05/02 03:35:09;;;;;;;;;31.00;30.50;;;;;;;;5033269;28;52499;-54
2022/05/02 03:37:34;;;;;;;;;31.00;27.75;;;;;;;;5014532;28;52599;-56
2022/05/02 03:39:59;;;;;;;;;28.75;28.00;;;;;;;;5006456;28;50963;-53
2022/05/02 03:42:24;;;;;;;;;32.50;30.00;;;;;;;;5020813;28;51144;-54
2022/05/02 03:44:51;;;;;;;;;24.75;24.75;;;;;;;;5024624;28;51361;-55
2022/05/02 03:47:17;;;;;;;;;32.50;27.25;;;;;;;;5026071;28;52372;-56
2022/05/02 03:49:42;;;;;;;;;34.25;31.00;;;;;;;;5027287;28;50927;-54
2022/05/02 03:52:07;;;;;;;;;27.75;25.50;;;;;;;;5025339;28;51123;-56
2022/05/02 03:54:32;;;;;;;;;25.75;25.00;;;;;;;;5028463;28;51572;-55
2022/05/02 03:56:57;;;;;;;;;31.00;29.50;;;;;;;;5027752;28;50962;-56
2022/05/02 03:59:23;;;;;;;;;28.25;27.75;;;;;;;;5025042;28;51104;-56
2022/05/02 04:01:48;;;;;;;;;28.50;26.75;;;;;;;;5028081;28;51044;-55
2022/05/02 04:04:13;;;;;;;;;27.00;26.25;;;;;;;;5030611;28;51439;-54
2022/05/02 04:06:39;;;;;;;;;29.50;27.50;;;;;;;;5019114;28;51845;-55
2022/05/02 04:09:04;;;;;;;;;28.25;28.25;;;;;;;;5030486;28;51648;-55
2022/05/02 04:11:29;;;;;;;;;29.50;27.25;;;;;;;;5034709;28;51360;-55
2022/05/02 04:13:55;;;;;;;;;31.50;29.50;;;;;;;;5027658;28;51167;-55
2022/05/02 04:16:20;;;;;;;;;30.00;27.00;;;;;;;;5025540;28;51158;-56
2022/05/02 04:18:45;;;;;;;;;28.50;26.50;;;;;;;;5025773;28;51048;-54
2022/05/02 04:21:11;;;;;;;;;33.50;31.00;;;;;;;;5026289;28;51167;-56
2022/05/02 04:23:36;;;;;;;;;23.75;22.00;;;;;;;;5018182;28;51128;-53
2022/05/02 04:26:02;;;;;;;;;28.75;27.00;;;;;;;;5036034;28;51754;-54
2022/05/02 04:28:28;;;;;;;;;28.75;28.25;;;;;;;;5021789;28;51172;-55
2022/05/02 04:30:54;;;;;;;;;31.75;30.25;;;;;;;;5033736;28;51139;-56
2022/05/02 04:33:19;;;;;;;;;29.50;27.75;;;;;;;;5022404;28;51021;-56
2022/05/02 04:35:44;;;;;;;;;30.00;28.75;;;;;;;;5028180;28;51776;-58
2022/05/02 04:38:10;;;;;;;;;31.75;29.25;;;;;;;;5034820;28;51078;-55
2022/05/02 04:40:35;;;;;;;;;32.00;30.50;;;;;;;;5038136;28;51075;-55
2022/05/02 04:43:00;;;;;;;;;32.00;28.25;;;;;;;;5035804;28;51063;-55
2022/05/02 04:45:26;;;;;;;;;31.00;28.75;;;;;;;;5026766;28;51165;-55
2022/05/02 04:47:51;;;;;;;;;30.75;29.00;;;;;;;;5026172;28;51125;-53
2022/05/02 04:50:16;;;;;;;;;32.00;29.50;;;;;;;;5042899;28;50970;-56
2022/05/02 04:52:41;;;;;;;;;31.25;31.25;;;;;;;;5026257;28;51325;-56
2022/05/02 04:55:07;;;;;;;;;29.25;28.50;;;;;;;;5033951;28;51007;-55
2022/05/02 04:57:32;;;;;;;;;37.50;33.75;;;;;;;;5018703;28;51408;-55
2022/05/02 04:59:58;;;;;;;;;35.50;33.25;;;;;;;;5029778;28;51292;-54
2022/05/02 05:02:25;;;;;;;;;31.75;29.75;;;;;;;;5028097;28;51177;-55
2022/05/02 05:04:50;;;;;;;;;34.25;32.75;;;;;;;;5028384;28;51816;-57
2022/05/02 05:07:15;;;;;;;;;35.75;34.00;;;;;;;;5009183;28;51081;-54
2022/05/02 05:09:40;;;;;;;;;32.75;31.50;;;;;;;;5029220;28;51178;-52
2022/05/02 05:12:11;;;;;;;;;38.00;35.25;;;;;;;;5035394;28;51215;-53
2022/05/02 05:17:57;;;;;;;;;36.25;33.25;;;;;;;;5029545;28;51412;-55
2022/05/02 05:20:49;;;;;;;;;29.75;28.50;;;;;;;;5025050;28;51298;-57
2022/05/02 05:23:14;;;;;;;;;34.75;32.75;;;;;;;;5006077;28;51222;-56
2022/05/02 05:25:58;;;;;;;;;35.00;32.75;;;;;;;;5027172;28;51218;-55
2022/05/02 05:28:42;;;;;;;;;37.00;34.25;;;;;;;;5025857;28;53481;-56
2022/05/02 05:31:13;;;;;;;;;38.50;35.00;;;;;;;;5025223;28;51189;-56
2022/05/02 05:33:46;;;;;;;;;37.50;34.00;;;;;;;;5029814;28;51152;-55
2022/05/02 05:36:35;;;;;;;;;36.50;32.25;;;;;;;;5027187;28;51916;-54
2022/05/02 05:39:10;;;;;;;;;39.00;30.75;;;;;;;;5021587;28;51059;-55
2022/05/02 05:41:41;;;;;;;;;31.50;31.25;;;;;;;;5031411;28;51072;-58
2022/05/02 05:44:06;;;;;;;;;35.75;32.25;;;;;;;;5021314;28;51427;-57
2022/05/02 05:46:54;;;;;;;;;34.50;33.00;;;;;;;;5025615;28;52107;-54
2022/05/02 05:49:32;;;;;;;;;38.25;34.75;;;;;;;;5007164;28;51385;-54
2022/05/02 05:52:03;;;;;;;;;33.75;32.00;;;;;;;;5023596;28;51140;-56
2022/05/02 05:54:34;;;;;;;;;36.50;34.75;;;;;;;;5004701;28;51080;-54
2022/05/02 05:56:59;;;;;;;;;39.00;33.25;;;;;;;;5027681;28;51934;-53
2022/05/02 05:59:32;;;;;;;;;36.75;33.25;;;;;;;;5023248;28;51045;-55
2022/05/02 06:01:58;;;;;;;;;41.75;36.75;;;;;;;;5028982;28;51339;-55
2022/05/02 06:04:25;;;;;;;;;40.75;35.75;;;;;;;;5032587;28;51064;-53
2022/05/02 06:06:50;;;;;;;;;40.00;35.00;;;;;;;;5036766;28;51200;-59
2022/05/02 06:09:16;;;;;;;;;43.75;36.75;;;;;;;;5026393;28;51084;-56
2022/05/02 06:11:43;;;;;;;;;39.50;35.75;;;;;;;;5023961;28;51165;-56
2022/05/02 06:14:11;;;;;;;;;49.25;41.50;;;;;;;;5035608;28;51193;-53
2022/05/02 06:19:25;;;;;;;;;39.75;36.00;;;;;;;;5027928;28;51183;-56
2022/05/02 06:21:52;;;;;;;;;42.25;37.25;;;;;;;;5033353;28;51138;-55
2022/05/02 06:24:17;;;;;;;;;40.25;36.50;;;;;;;;5026779;28;51109;-55
2022/05/02 06:26:43;;;;;;;;;39.25;34.75;;;;;;;;5021771;28;51964;-55
2022/05/02 06:29:09;;;;;;;;;41.00;35.75;;;;;;;;5026995;28;51049;-56
2022/05/02 06:31:36;;;;;;;;;43.50;37.00;;;;;;;;5024360;28;51070;-58
2022/05/02 06:34:02;;;;;;;;;41.00;35.75;;;;;;;;5045208;28;51247;-56
2022/05/02 06:36:27;;;;;;;;;45.25;38.75;;;;;;;;5025761;28;51754;-57
2022/05/02 06:39:09;;;;;;;;;43.50;36.25;;;;;;;;5028436;28;51753;-54
2022/05/02 06:41:35;;;;;;;;;49.25;38.50;;;;;;;;5029588;28;51761;-55
2022/05/02 06:44:07;;;;;;;;;43.50;36.50;;;;;;;;5033234;28;51107;-53
2022/05/02 06:46:56;;;;;;;;;48.00;37.75;;;;;;;;5030954;28;51886;-57
2022/05/02 06:49:24;;;;;;;;;46.25;39.50;;;;;;;;5018488;28;51193;-55
2022/05/02 06:51:51;;;;;;;;;42.50;37.50;;;;;;;;5023851;28;51085;-55
2022/05/02 06:54:23;;;;;;;;;43.50;35.25;;;;;;;;5021836;28;51661;-55
2022/05/02 06:57:00;;;;;;;;;44.25;37.25;;;;;;;;5017954;28;51948;-54
2022/05/02 06:59:28;;;;;;;;;39.75;35.00;;;;;;;;5036923;28;51064;-59
2022/05/02 07:01:57;;;;;;;;;41.00;36.00;;;;;;;;5030180;28;51204;-53
2022/05/02 07:04:32;;;;;;;;;43.25;35.50;;;;;;;;5029028;28;51037;-55
2022/05/02 07:07:15;;;;;;;;;39.75;35.75;;;;;;;;5008002;28;52165;-56
2022/05/02 07:09:45;;;;;;;;;42.50;35.25;;;;;;;;5026438;28;50954;-55
2022/05/02 07:12:15;;;;;;;;;36.75;34.00;;;;;;;;5008437;28;50979;-56
2022/05/02 07:14:46;;;;;;;;;42.00;37.25;;;;;;;;5014878;28;51144;-58
2022/05/02 07:17:18;;;;;;;;;39.50;35.00;;;;;;;;4997018;28;51177;-55
2022/05/02 07:19:58;;;;;;;;;45.00;37.25;;;;;;;;5006027;28;51069;-54
2022/05/02 07:22:31;;;;;;;;;42.50;38.00;;;;;;;;5001800;28;51208;-54
2022/05/02 07:24:56;;;;;;;;;48.00;38.00;;;;;;;;5010751;28;51118;-55
2022/05/02 07:27:34;;;;;;;;;46.25;38.25;;;;;;;;5008695;28;51143;-57
2022/05/02 07:30:00;;;;;;;;;43.00;34.75;;;;;;;;5011146;28;51650;-53
2022/05/02 07:32:26;;;;;;;;;44.00;36.50;;;;;;;;5001090;28;51185;-55
2022/05/02 07:34:52;;;;;;;;;44.75;36.25;;;;;;;;5010788;28;51175;-59
2022/05/02 07:37:19;;;;;;;;;44.50;37.50;;;;;;;;5010317;28;52593;-59
2022/05/02 07:39:45;;;;;;;;;46.00;37.50;;;;;;;;5011426;28;51290;-58
2022/05/02 07:42:12;;;;;;;;;40.00;34.75;;;;;;;;5001732;28;51152;-59
2022/05/02 07:44:38;;;;;;;;;43.00;36.75;;;;;;;;5010531;28;51423;-59
2022/05/02 07:47:05;;;;;;;;;46.00;38.75;;;;;;;;5009212;28;51895;-58
2022/05/02 07:49:33;;;;;;;;;45.25;38.00;;;;;;;;5006363;28;51359;-59
2022/05/02 07:52:00;;;;;;;;;45.25;38.25;;;;;;;;5015927;28;51215;-57
2022/05/02 07:54:25;;;;;;;;;44.25;38.00;;;;;;;;5008041;28;51150;-61
2022/05/02 07:56:52;;;;;;;;;39.50;33.50;;;;;;;;5013537;28;51822;-59
2022/05/02 07:59:23;;;;;;;;;43.50;36.50;;;;;;;;5023866;28;51137;-58
2022/05/02 08:01:48;;;;;;;;;46.25;38.25;;;;;;;;5011108;28;51777;-59
2022/05/02 08:04:14;;;;;;;;;43.75;36.50;;;;;;;;5010909;28;51309;-59
2022/05/02 08:06:43;;;;;;;;;42.00;35.00;;;;;;;;5029614;28;51795;-59
2022/05/02 08:09:14;;;;;;;;;40.50;35.00;;;;;;;;5028542;28;51199;-59
2022/05/02 08:12:06;;;;;;;;;45.25;39.25;;;;;;;;5026072;28;51268;-59
2022/05/02 08:14:43;;;;;;;;;44.75;38.25;;;;;;;;5015692;28;51417;-62
2022/05/02 08:17:27;;;;;;;;;42.00;35.50;;;;;;;;5029788;28;51041;-59
2022/05/02 08:19:53;;;;;;;;;42.50;37.25;;;;;;;;5031766;28;51032;-59
2022/05/02 08:28:01;;;;;;;;;41.50;34.00;;;;;;;;5028438;28;51639;-59
2022/05/02 08:30:31;;;;;;;;;45.75;39.00;;;;;;;;5043884;28;51134;-59
2022/05/02 08:33:01;;;;;;;;;42.00;35.50;;;;;;;;5019242;28;51217;-59
2022/05/02 08:35:36;;;;;;;;;45.00;36.00;;;;;;;;5035691;28;51230;-59
2022/05/02 08:38:28;;;;;;;;;38.75;33.50;;;;;;;;5023990;28;51066;-58
2022/05/02 08:40:59;;;;;;;;;45.75;37.25;;;;;;;;5011929;28;51480;-60
2022/05/02 08:43:27;;;;;;;;;45.50;38.00;;;;;;;;5027514;28;51158;-57
2022/05/02 08:46:13;;;;;;;;;41.75;36.00;;;;;;;;5043912;28;51257;-55
2022/05/02 08:48:38;;;;;;;;;47.00;37.75;;;;;;;;5035239;28;53239;-53
2022/05/02 08:51:06;;;;;;;;;40.00;34.75;;;;;;;;5029181;28;51118;-56
2022/05/02 08:53:43;;;;;;;;;46.50;37.00;;;;;;;;5025977;28;51207;-51
2022/05/02 08:56:20;;;;;;;;;44.75;37.75;;;;;;;;5027228;28;50906;-49
2022/05/02 08:58:48;;;;;;;;;44.75;36.00;;;;;;;;5030473;28;51698;-49
2022/05/02 09:01:13;;;;;;;;;46.50;39.00;;;;;;;;5039655;28;50996;-49
2022/05/02 09:03:57;;;;;;;;;46.75;40.00;;;;;;;;5041356;28;51006;-51
2022/05/02 09:06:22;;;;;;;;;46.25;37.50;;;;;;;;5034704;28;51056;-50
2022/05/02 09:09:08;;;;;;;;;44.25;38.00;;;;;;;;5037719;28;51725;-51
2022/05/02 09:11:39;;;;;;;;;45.50;37.50;;;;;;;;5040889;28;51273;-50
2022/05/02 09:14:10;;;;;;;;;43.25;36.25;;;;;;;;5033764;28;50963;-49
2022/05/02 09:16:44;;;;;;;;;44.75;37.00;;;;;;;;5027262;28;51173;-50
2022/05/02 09:19:15;;;;;;;;;44.75;37.00;;;;;;;;5027204;28;51980;-49
2022/05/02 09:21:40;;;;;;;;;47.25;38.25;;;;;;;;5029957;28;51116;-50
2022/05/02 09:24:24;;;;;;;;;46.50;37.00;;;;;;;;5028536;28;51133;-50
2022/05/02 09:26:50;;;;;;;;;49.50;39.75;;;;;;;;5026622;28;52136;-49
2022/05/02 09:29:34;;;;;;;;;44.00;37.00;;;;;;;;5030090;28;51825;-50
2022/05/02 09:32:28;;;;;;;;;45.50;37.75;;;;;;;;5025361;28;51081;-49
2022/05/02 09:34:56;;;;;;;;;46.75;38.50;;;;;;;;5033003;28;51283;-49
2022/05/02 09:37:23;;;;;;;;;44.25;38.00;;;;;;;;5027120;28;51036;-49
2022/05/02 09:40:04;;;;;;;;;38.50;35.00;;;;;;;;5042774;28;50889;-54
2022/05/02 09:42:32;;;;;;;;;42.25;36.25;;;;;;;;5014863;28;51255;-48
2022/05/02 09:51:32;;;;;;;;;36.50;33.25;;;;;;;;4983408;28;51799;-50
2022/05/02 09:54:05;;;;;;;;;41.75;36.00;;;;;;;;4984276;28;52763;-50
2022/05/02 09:56:39;;;;;;;;;41.50;36.00;;;;;;;;5015581;28;51175;-51
2022/05/02 09:59:13;;;;;;;;;37.75;33.00;;;;;;;;5029245;28;51153;-50
2022/05/02 10:01:42;;;;;;;;;37.50;34.25;;;;;;;;5027287;28;51940;-52
2022/05/02 10:04:18;;;;;;;;;40.50;35.25;;;;;;;;5034846;28;51164;-54
2022/05/02 10:06:58;;;;;;;;;33.75;30.50;;;;;;;;5019189;28;50933;-49
2022/05/02 10:09:29;;;;;;;;;33.50;30.50;;;;;;;;5008081;28;51547;-49
2022/05/02 10:12:06;;;;;;;;;37.50;33.75;;;;;;;;4992029;28;52244;-50
2022/05/02 10:14:42;;;;;;;;;43.50;36.50;;;;;;;;5012003;28;51160;-50
2022/05/02 10:17:16;;;;;;;;;36.75;33.25;;;;;;;;5000405;28;51286;-49
2022/05/02 10:19:54;;;;;;;;;38.25;34.00;;;;;;;;5015692;28;50994;-49
2022/05/02 10:22:26;;;;;;;;;42.25;35.75;;;;;;;;5007990;28;51160;-50
2022/05/02 10:25:02;;;;;;;;;38.00;34.00;;;;;;;;5011550;28;50989;-48
2022/05/02 10:27:31;;;;;;;;;38.50;33.50;;;;;;;;5004027;28;51203;-49
2022/05/02 10:30:07;;;;;;;;;33.25;31.50;;;;;;;;5010410;28;51290;-48
2022/05/02 10:32:44;;;;;;;;;37.00;33.50;;;;;;;;5014994;28;51440;-49
2022/05/02 10:35:10;;;;;;;;;35.50;32.25;;;;;;;;5009446;28;51315;-49
2022/05/02 10:37:39;;;;;;;;;34.75;32.00;;;;;;;;5010441;28;51191;-48
2022/05/02 10:40:08;;;;;;;;;31.25;30.25;;;;;;;;5010161;28;51160;-50
2022/05/02 10:42:34;;;;;;;;;36.50;32.75;;;;;;;;5008997;28;51174;-50
2022/05/02 10:45:06;;;;;;;;;34.00;31.50;;;;;;;;5009472;28;50990;-49
2022/05/02 10:47:51;;;;;;;;;33.50;31.25;;;;;;;;5000504;28;51053;-51
2022/05/02 10:50:27;;;;;;;;;36.50;32.50;;;;;;;;5011374;28;51212;-49
2022/05/02 10:53:07;;;;;;;;;36.00;32.25;;;;;;;;5001811;28;51916;-50
2022/05/02 10:55:33;;;;;;;;;34.50;31.75;;;;;;;;5022755;28;51096;-51
2022/05/02 10:58:05;;;;;;;;;40.25;34.75;;;;;;;;5009620;28;51030;-49
2022/05/02 11:00:32;;;;;;;;;33.75;31.25;;;;;;;;5012135;28;51210;-50
2022/05/02 11:03:16;;;;;;;;;31.00;30.00;;;;;;;;5013094;28;52023;-50
2022/05/02 11:05:41;;;;;;;;;30.25;29.75;;;;;;;;5016790;28;51194;-48
2022/05/02 11:08:10;;;;;;;;;34.75;32.25;;;;;;;;5029918;28;51554;-50
2022/05/02 11:10:46;;;;;;;;;30.50;30.00;;;;;;;;5023308;28;51135;-51
2022/05/02 11:13:14;;;;;;;;;32.75;30.75;;;;;;;;5051351;28;51187;-49
2022/05/02 11:15:58;;;;;;;;;33.75;31.25;;;;;;;;5051470;28;51072;-49
2022/05/02 11:21:24;;;;;;;;;28.50;28.25;;;;;;;;5025596;28;51525;-50
2022/05/02 11:23:49;;;;;;;;;27.00;25.50;;;;;;;;5017225;28;52756;-50
2022/05/02 11:26:17;;;;;;;;;31.50;30.00;;;;;;;;5007451;28;51146;-48
2022/05/02 11:29:00;;;;;;;;;29.50;28.50;;;;;;;;5020496;28;52468;-53
2022/05/02 11:31:29;;;;;;;;;28.25;28.00;;;;;;;;5026276;28;51459;-49
2022/05/02 11:34:13;;;;;;;;;29.00;28.25;;;;;;;;5021071;28;51690;-50
2022/05/02 11:36:44;;;;;;;;;31.50;29.50;;;;;;;;5018185;28;51085;-49
2022/05/02 11:39:14;;;;;;;;;21.25;21.25;;;;;;;;5023353;28;51235;-48
2022/05/02 11:41:43;;;;;;;;;28.00;27.50;;;;;;;;5019435;28;51293;-51
2022/05/02 11:44:11;;;;;;;;;36.25;33.00;;;;;;;;5023688;28;52007;-49
2022/05/02 11:46:57;;;;;;;;;33.25;31.25;;;;;;;;5021421;28;51580;-49
2022/05/02 11:49:52;;;;;;;;;33.25;29.75;;;;;;;;5022666;28;51368;-48
2022/05/02 11:52:28;;;;;;;;;30.00;30.00;;;;;;;;5016770;28;51550;-48
2022/05/02 11:54:56;;;;;;;;;30.75;29.50;;;;;;;;5019320;28;52126;-49
2022/05/02 11:57:25;;;;;;;;;39.50;33.25;;;;;;;;5017033;28;51077;-49
2022/05/02 12:00:05;;;;;;;;;35.75;33.00;;;;;;;;5022486;28;51204;-48
2022/05/02 12:02:31;;;;;;;;;34.75;31.25;;;;;;;;5024317;28;52736;-48
2022/05/02 12:04:57;;;;;;;;;33.50;31.75;;;;;;;;5021117;28;51583;-48
2022/05/02 12:07:29;;;;;;;;;34.00;30.50;;;;;;;;5015906;28;51255;-49
2022/05/02 12:10:01;;;;;;;;;37.00;31.50;;;;;;;;5014685;28;51324;-48
2022/05/02 12:12:26;;;;;;;;;34.50;31.75;;;;;;;;5026234;28;51334;-49
2022/05/02 12:15:09;;;;;;;;;30.00;29.25;;;;;;;;5018253;28;52336;-51
2022/05/02 12:17:50;;;;;;;;;26.75;24.75;;;;;;;;5046230;28;51245;-51
2022/05/02 12:20:42;;;;;;;;;35.25;31.00;;;;;;;;5041387;28;51060;-51
2022/05/02 12:23:07;;;;;;;;;29.50;28.50;;;;;;;;5046535;28;51142;-50
2022/05/02 12:25:33;;;;;;;;;29.25;27.25;;;;;;;;5038892;28;51062;-50
2022/05/02 12:28:03;;;;;;;;;29.50;28.75;;;;;;;;5032094;28;51264;-49
2022/05/02 12:30:28;;;;;;;;;29.00;28.75;;;;;;;;5033978;28;51104;-52
2022/05/02 12:32:58;;;;;;;;;32.50;30.50;;;;;;;;5046697;28;51167;-51
2022/05/02 12:35:25;;;;;;;;;30.25;29.75;;;;;;;;5041497;28;50972;-51
2022/05/02 12:37:50;;;;;;;;;32.25;30.25;;;;;;;;5051961;28;51048;-51
2022/05/02 12:40:19;;;;;;;;;29.25;28.50;;;;;;;;5040796;28;51194;-50
2022/05/02 12:43:04;;;;;;;;;30.00;29.00;;;;;;;;5042126;28;50859;-50
2022/05/02 12:45:42;;;;;;;;;30.00;29.50;;;;;;;;5035812;28;51818;-49
2022/05/02 12:48:15;;;;;;;;;29.00;27.00;;;;;;;;5042376;28;51082;-50
2022/05/02 12:50:43;;;;;;;;;37.00;30.00;;;;;;;;5023825;28;51895;-49
2022/05/02 12:53:16;;;;;;;;;31.50;30.25;;;;;;;;5038130;28;51193;-47
2022/05/02 12:55:42;;;;;;;;;26.50;26.00;;;;;;;;5027654;28;51502;-50
2022/05/02 13:00:59;;;;;;;;;28.75;28.00;;;;;;;;5030011;28;51140;-49
2022/05/02 13:03:28;;;;;;;;;28.25;27.50;;;;;;;;5039012;28;51155;-49
2022/05/02 13:05:53;;;;;;;;;30.50;29.50;;;;;;;;5010956;28;51066;-50
2022/05/02 13:08:28;;;;;;;;;27.25;26.75;;;;;;;;5015238;28;52376;-48
2022/05/02 13:11:01;;;;;;;;;31.25;30.25;;;;;;;;5014809;28;50949;-50
2022/05/02 13:13:35;;;;;;;;;27.75;26.75;;;;;;;;5030897;28;51012;-48
2022/05/02 13:16:10;;;;;;;;;28.00;26.25;;;;;;;;5021020;28;50953;-50
2022/05/02 13:18:44;;;;;;;;;26.75;25.75;;;;;;;;5014742;28;51077;-51
2022/05/02 13:21:12;;;;;;;;;29.75;27.75;;;;;;;;5000474;28;51782;-49
2022/05/02 13:23:42;;;;;;;;;29.50;29.50;;;;;;;;5015926;28;51552;-53
2022/05/02 13:26:16;;;;;;;;;28.25;25.00;;;;;;;;5015380;28;51772;-48
2022/05/02 13:28:59;;;;;;;;;27.75;27.25;;;;;;;;5009256;28;51205;-50
2022/05/02 13:31:37;;;;;;;;;25.75;25.25;;;;;;;;5025689;28;50899;-51
2022/05/02 13:34:04;;;;;;;;;25.50;24.00;;;;;;;;5010159;28;51788;-52
2022/05/02 13:36:30;;;;;;;;;25.75;25.50;;;;;;;;5007314;28;51871;-47
2022/05/02 13:39:25;;;;;;;;;32.75;29.50;;;;;;;;4981769;28;52638;-50
2022/05/02 13:42:04;;;;;;;;;28.50;26.00;;;;;;;;4982437;28;51407;-51
2022/05/02 13:44:48;;;;;;;;;25.50;24.75;;;;;;;;5003327;28;51382;-48
2022/05/02 13:47:14;;;;;;;;;24.00;22.75;;;;;;;;5001109;28;51939;-48
2022/05/02 13:49:58;;;;;;;;;27.75;25.25;;;;;;;;5001003;28;51322;-48
2022/05/02 13:52:39;;;;;;;;;24.75;22.50;;;;;;;;5008767;28;51094;-49
2022/05/02 13:55:11;;;;;;;;;25.00;25.00;;;;;;;;5001464;28;52404;-51
2022/05/02 13:57:44;;;;;;;;;25.25;25.25;;;;;;;;5005725;28;51346;-50
2022/05/02 14:03:11;;;;;;;;;28.50;28.00;;;;;;;;4983371;28;52503;-48
2022/05/02 14:05:48;;;;;;;;;25.25;23.25;;;;;;;;5020106;28;51609;-48
2022/05/02 14:08:17;;;;;;;;;29.50;27.50;;;;;;;;5014303;28;52265;-50
2022/05/02 14:10:53;;;;;;;;;23.50;23.00;;;;;;;;5022009;28;51364;-50
2022/05/02 14:13:18;;;;;;;;;22.50;21.25;;;;;;;;5014463;28;51398;-50
2022/05/02 14:15:44;;;;;;;;;25.00;25.00;;;;;;;;5017354;28;51358;-48
2022/05/02 14:18:13;;;;;;;;;25.75;24.50;;;;;;;;5026152;28;51597;-49
2022/05/02 14:20:40;;;;;;;;;27.25;25.25;;;;;;;;5013663;28;51239;-52
2022/05/02 14:23:07;;;;;;;;;27.25;25.50;;;;;;;;5020590;28;51188;-49
2022/05/02 14:25:36;;;;;;;;;26.50;24.50;;;;;;;;5029817;28;51372;-52
2022/05/02 14:28:07;;;;;;;;;28.00;28.00;;;;;;;;5022207;28;51381;-48
2022/05/02 14:30:38;;;;;;;;;22.25;22.00;;;;;;;;5019557;28;51145;-50
2022/05/02 14:33:04;;;;;;;;;27.25;25.25;;;;;;;;5026157;28;51172;-50
2022/05/02 14:35:38;;;;;;;;;25.75;22.25;;;;;;;;5021007;28;52995;-49
2022/05/02 14:38:04;;;;;;;;;24.50;23.00;;;;;;;;5009638;28;51634;-49
2022/05/02 14:40:30;;;;;;;;;23.50;22.50;;;;;;;;5020525;28;51315;-49
2022/05/02 14:42:56;;;;;;;;;22.00;22.00;;;;;;;;5023330;28;52233;-50
2022/05/02 14:45:23;;;;;;;;;25.00;24.25;;;;;;;;5024941;28;51092;-50
2022/05/02 14:47:49;;;;;;;;;25.75;23.50;;;;;;;;5004764;28;52373;-50
2022/05/02 14:50:15;;;;;;;;;25.50;24.50;;;;;;;;5027111;28;51667;-48
2022/05/02 14:52:40;;;;;;;;;24.75;24.00;;;;;;;;5001885;28;51329;-52
2022/05/02 14:55:08;;;;;;;;;24.25;24.00;;;;;;;;5024807;28;51195;-47
2022/05/02 14:57:33;;;;;;;;;27.50;25.00;;;;;;;;5028276;28;51853;-49
2022/05/02 15:00:05;;;;;;;;;26.25;23.50;;;;;;;;5015435;28;51105;-50
2022/05/02 15:02:33;;;;;;;;;23.75;23.00;;;;;;;;5024278;28;51187;-51